sensor_id;sensor_type;location;lat;lon;timestamp;pressure;altitude;pressure_sealevel;temperature;humidity
56064;BME280;41940;52.880;13.012;2022-07-10T00:01:20;101526.03;;;11.61;100.00
56064;BME280;41940;52.880;13.012;2022-07-10T00:03:45;101532.63;;;11.67;100.00
56064;BME280;41940;52.880;13.012;2022-07-10T00:06:10;101527.34;;;11.75;100.00
56064;BME280;41940;52.880;13.012;2022-07-10T00:08:36;101532.78;;;11.65;100.00
56064;BME280;41940;52.880;13.012;2022-07-10T00:11:01;101529.66;;;11.70;100.00
56064;BME280;41940;52.880;13.012;2022-07-10T00:13:26;101532.69;;;11.85;100.00
56064;BME280;41940;52.880;13.012;2022-07-10T00:15:52;101521.78;;;11.86;100.00
56064;BME280;41940;52.880;13.012;2022-07-10T00:18:17;101521.88;;;11.94;100.00
56064;BME280;41940;52.880;13.012;2022-07-10T00:20:42;101518.88;;;11.98;100.00
56064;BME280;41940;52.880;13.012;2022-07-10T00:23:08;101508.91;;;11.90;100.00
56064;BME280;41940;52.880;13.012;2022-07-10T00:25:33;101519.91;;;11.96;100.00
56064;BME280;41940;52.880;13.012;2022-07-10T00:28:03;101512.66;;;11.79;100.00
56064;BME280;41940;52.880;13.012;2022-07-10T00:30:29;101497.94;;;11.83;100.00
56064;BME280;41940;52.880;13.012;2022-07-10T00:32:54;101496.78;;;11.86;100.00
56064;BME280;41940;52.880;13.012;2022-07-10T00:35:20;101497.69;;;11.76;100.00
56064;BME280;41940;52.880;13.012;2022-07-10T00:37:45;101494.53;;;11.81;100.00
56064;BME280;41940;52.880;13.012;2022-07-10T00:40:11;101502.19;;;11.76;100.00
56064;BME280;41940;52.880;13.012;2022-07-10T00:42:37;101515.56;;;11.86;100.00
56064;BME280;41940;52.880;13.012;2022-07-10T00:45:02;101498.53;;;11.95;100.00
56064;BME280;41940;52.880;13.012;2022-07-10T00:47:28;101506.81;;;11.84;100.00
56064;BME280;41940;52.880;13.012;2022-07-10T00:49:53;101504.06;;;11.75;100.00
56064;BME280;41940;52.880;13.012;2022-07-10T00:52:18;101509.50;;;11.84;100.00
56064;BME280;41940;52.880;13.012;2022-07-10T00:54:45;101506.91;;;11.92;100.00
56064;BME280;41940;52.880;13.012;2022-07-10T00:57:12;101505.66;;;11.86;100.00
56064;BME280;41940;52.880;13.012;2022-07-10T00:59:37;101514.41;;;11.98;100.00
56064;BME280;41940;52.880;13.012;2022-07-10T01:02:03;101513.84;;;11.94;100.00
56064;BME280;41940;52.880;13.012;2022-07-10T01:04:29;101511.13;;;11.76;100.00
56064;BME280;41940;52.880;13.012;2022-07-10T01:06:54;101507.31;;;11.69;100.00
56064;BME280;41940;52.880;13.012;2022-07-10T01:09:19;101513.47;;;11.79;100.00
56064;BME280;41940;52.880;13.012;2022-07-10T01:11:45;101512.00;;;11.67;100.00
56064;BME280;41940;52.880;13.012;2022-07-10T01:14:10;101507.63;;;11.66;100.00
56064;BME280;41940;52.880;13.012;2022-07-10T01:16:36;101506.88;;;11.74;100.00
56064;BME280;41940;52.880;13.012;2022-07-10T01:19:01;101515.63;;;11.76;100.00
56064;BME280;41940;52.880;13.012;2022-07-10T01:21:28;101507.91;;;11.91;100.00
56064;BME280;41940;52.880;13.012;2022-07-10T01:23:54;101505.78;;;11.67;100.00
56064;BME280;41940;52.880;13.012;2022-07-10T01:26:19;101505.50;;;11.70;100.00
56064;BME280;41940;52.880;13.012;2022-07-10T01:28:47;101498.56;;;11.67;100.00
56064;BME280;41940;52.880;13.012;2022-07-10T01:31:13;101502.00;;;11.59;100.00
56064;BME280;41940;52.880;13.012;2022-07-10T01:33:38;101496.00;;;11.75;100.00
56064;BME280;41940;52.880;13.012;2022-07-10T01:36:04;101491.41;;;11.86;100.00
56064;BME280;41940;52.880;13.012;2022-07-10T01:38:29;101497.28;;;11.71;100.00
56064;BME280;41940;52.880;13.012;2022-07-10T01:40:54;101488.41;;;11.71;100.00
56064;BME280;41940;52.880;13.012;2022-07-10T01:43:20;101491.38;;;11.68;100.00
56064;BME280;41940;52.880;13.012;2022-07-10T01:45:45;101495.53;;;11.80;100.00
56064;BME280;41940;52.880;13.012;2022-07-10T01:48:10;101483.50;;;11.84;100.00
56064;BME280;41940;52.880;13.012;2022-07-10T01:50:35;101485.00;;;11.69;100.00
56064;BME280;41940;52.880;13.012;2022-07-10T01:53:00;101475.97;;;11.70;100.00
56064;BME280;41940;52.880;13.012;2022-07-10T01:55:26;101483.81;;;11.81;100.00
56064;BME280;41940;52.880;13.012;2022-07-10T01:57:51;101488.91;;;11.56;100.00
56064;BME280;41940;52.880;13.012;2022-07-10T02:00:16;101487.75;;;11.59;100.00
56064;BME280;41940;52.880;13.012;2022-07-10T02:02:42;101487.34;;;11.54;100.00
56064;BME280;41940;52.880;13.012;2022-07-10T02:05:27;101490.22;;;11.70;100.00
56064;BME280;41940;52.880;13.012;2022-07-10T02:07:53;101493.66;;;11.62;100.00
56064;BME280;41940;52.880;13.012;2022-07-10T02:10:18;101490.72;;;11.56;100.00
56064;BME280;41940;52.880;13.012;2022-07-10T02:12:43;101485.22;;;11.57;100.00
56064;BME280;41940;52.880;13.012;2022-07-10T02:15:08;101487.03;;;11.57;100.00
56064;BME280;41940;52.880;13.012;2022-07-10T02:17:34;101488.19;;;11.54;100.00
56064;BME280;41940;52.880;13.012;2022-07-10T02:19:59;101478.81;;;11.58;100.00
56064;BME280;41940;52.880;13.012;2022-07-10T02:22:25;101475.34;;;11.48;100.00
56064;BME280;41940;52.880;13.012;2022-07-10T02:24:50;101472.47;;;11.59;100.00
56064;BME280;41940;52.880;13.012;2022-07-10T02:27:16;101472.66;;;11.48;100.00
56064;BME280;41940;52.880;13.012;2022-07-10T02:29:41;101476.09;;;11.40;100.00
56064;BME280;41940;52.880;13.012;2022-07-10T02:32:07;101469.34;;;11.36;100.00
56064;BME280;41940;52.880;13.012;2022-07-10T02:34:32;101476.47;;;11.55;100.00
56064;BME280;41940;52.880;13.012;2022-07-10T02:36:57;101475.16;;;11.59;100.00
56064;BME280;41940;52.880;13.012;2022-07-10T02:39:22;101477.75;;;11.51;100.00
56064;BME280;41940;52.880;13.012;2022-07-10T02:41:48;101474.97;;;11.43;100.00
56064;BME280;41940;52.880;13.012;2022-07-10T02:44:14;101479.94;;;11.65;100.00
56064;BME280;41940;52.880;13.012;2022-07-10T02:46:39;101475.25;;;11.68;100.00
56064;BME280;41940;52.880;13.012;2022-07-10T02:49:04;101470.78;;;11.58;100.00
56064;BME280;41940;52.880;13.012;2022-07-10T02:51:30;101469.59;;;11.43;100.00
56064;BME280;41940;52.880;13.012;2022-07-10T02:53:55;101465.59;;;11.47;100.00
56064;BME280;41940;52.880;13.012;2022-07-10T02:56:20;101472.47;;;11.59;100.00
56064;BME280;41940;52.880;13.012;2022-07-10T02:58:46;101476.50;;;11.45;100.00
56064;BME280;41940;52.880;13.012;2022-07-10T03:01:11;101468.53;;;11.54;100.00
56064;BME280;41940;52.880;13.012;2022-07-10T03:03:36;101469.69;;;11.51;100.00
56064;BME280;41940;52.880;13.012;2022-07-10T03:06:02;101468.50;;;11.63;100.00
56064;BME280;41940;52.880;13.012;2022-07-10T03:08:27;101478.31;;;11.73;100.00
56064;BME280;41940;52.880;13.012;2022-07-10T03:10:52;101461.84;;;11.68;100.00
56064;BME280;41940;52.880;13.012;2022-07-10T03:13:18;101471.59;;;11.69;100.00
56064;BME280;41940;52.880;13.012;2022-07-10T03:15:43;101469.19;;;11.65;100.00
56064;BME280;41940;52.880;13.012;2022-07-10T03:18:08;101464.75;;;11.74;100.00
56064;BME280;41940;52.880;13.012;2022-07-10T03:20:34;101470.22;;;11.55;100.00
56064;BME280;41940;52.880;13.012;2022-07-10T03:23:00;101462.22;;;11.73;100.00
56064;BME280;41940;52.880;13.012;2022-07-10T03:25:25;101467.50;;;11.64;100.00
56064;BME280;41940;52.880;13.012;2022-07-10T03:27:50;101467.59;;;11.73;100.00
56064;BME280;41940;52.880;13.012;2022-07-10T03:30:16;101458.41;;;11.75;100.00
56064;BME280;41940;52.880;13.012;2022-07-10T03:32:41;101463.06;;;11.73;100.00
56064;BME280;41940;52.880;13.012;2022-07-10T03:35:06;101461.31;;;11.82;100.00
56064;BME280;41940;52.880;13.012;2022-07-10T03:37:32;101456.31;;;11.87;100.00
56064;BME280;41940;52.880;13.012;2022-07-10T03:39:57;101462.34;;;11.99;100.00
56064;BME280;41940;52.880;13.012;2022-07-10T03:42:23;101465.41;;;12.04;100.00
56064;BME280;41940;52.880;13.012;2022-07-10T03:44:48;101463.63;;;11.95;100.00
56064;BME280;41940;52.880;13.012;2022-07-10T03:47:13;101462.16;;;11.83;100.00
56064;BME280;41940;52.880;13.012;2022-07-10T03:49:39;101457.03;;;11.89;100.00
56064;BME280;41940;52.880;13.012;2022-07-10T03:52:05;101456.03;;;11.90;100.00
56064;BME280;41940;52.880;13.012;2022-07-10T03:54:30;101450.75;;;11.99;100.00
56064;BME280;41940;52.880;13.012;2022-07-10T03:56:56;101458.22;;;12.05;100.00
56064;BME280;41940;52.880;13.012;2022-07-10T03:59:40;101455.75;;;12.11;100.00
56064;BME280;41940;52.880;13.012;2022-07-10T04:02:06;101450.63;;;12.18;100.00
56064;BME280;41940;52.880;13.012;2022-07-10T04:04:31;101452.69;;;12.06;100.00
56064;BME280;41940;52.880;13.012;2022-07-10T04:06:56;101450.38;;;12.11;100.00
56064;BME280;41940;52.880;13.012;2022-07-10T04:09:22;101445.84;;;12.12;100.00
56064;BME280;41940;52.880;13.012;2022-07-10T04:11:47;101449.69;;;12.09;100.00
56064;BME280;41940;52.880;13.012;2022-07-10T04:14:12;101447.75;;;12.02;100.00
56064;BME280;41940;52.880;13.012;2022-07-10T04:16:38;101437.78;;;12.12;100.00
56064;BME280;41940;52.880;13.012;2022-07-10T04:19:03;101436.31;;;12.00;100.00
56064;BME280;41940;52.880;13.012;2022-07-10T04:21:28;101450.91;;;12.15;100.00
56064;BME280;41940;52.880;13.012;2022-07-10T04:23:54;101446.94;;;12.19;100.00
56064;BME280;41940;52.880;13.012;2022-07-10T04:26:19;101436.72;;;12.23;100.00
56064;BME280;41940;52.880;13.012;2022-07-10T04:28:45;101434.94;;;12.32;100.00
56064;BME280;41940;52.880;13.012;2022-07-10T04:31:10;101438.31;;;12.34;100.00
56064;BME280;41940;52.880;13.012;2022-07-10T04:33:35;101434.47;;;12.36;100.00
56064;BME280;41940;52.880;13.012;2022-07-10T04:36:01;101431.59;;;12.38;100.00
56064;BME280;41940;52.880;13.012;2022-07-10T04:38:26;101428.78;;;12.39;100.00
56064;BME280;41940;52.880;13.012;2022-07-10T04:40:51;101426.22;;;12.38;100.00
56064;BME280;41940;52.880;13.012;2022-07-10T04:43:17;101433.38;;;12.47;100.00
56064;BME280;41940;52.880;13.012;2022-07-10T04:45:42;101434.28;;;12.56;100.00
56064;BME280;41940;52.880;13.012;2022-07-10T04:48:07;101435.84;;;12.67;100.00
56064;BME280;41940;52.880;13.012;2022-07-10T04:50:32;101427.94;;;12.65;100.00
56064;BME280;41940;52.880;13.012;2022-07-10T04:52:58;101424.19;;;12.58;100.00
56064;BME280;41940;52.880;13.012;2022-07-10T04:55:23;101431.94;;;12.61;100.00
56064;BME280;41940;52.880;13.012;2022-07-10T04:57:49;101432.69;;;12.71;100.00
56064;BME280;41940;52.880;13.012;2022-07-10T05:00:14;101426.41;;;12.89;100.00
56064;BME280;41940;52.880;13.012;2022-07-10T05:02:40;101424.69;;;12.80;100.00
56064;BME280;41940;52.880;13.012;2022-07-10T05:05:05;101426.44;;;12.97;100.00
56064;BME280;41940;52.880;13.012;2022-07-10T05:07:30;101431.16;;;12.95;100.00
56064;BME280;41940;52.880;13.012;2022-07-10T05:09:56;101428.19;;;13.07;100.00
56064;BME280;41940;52.880;13.012;2022-07-10T05:12:21;101431.09;;;13.22;100.00
56064;BME280;41940;52.880;13.012;2022-07-10T05:14:46;101425.69;;;13.13;100.00
56064;BME280;41940;52.880;13.012;2022-07-10T05:17:11;101419.44;;;13.13;100.00
56064;BME280;41940;52.880;13.012;2022-07-10T05:19:37;101425.31;;;13.08;100.00
56064;BME280;41940;52.880;13.012;2022-07-10T05:22:02;101432.41;;;13.09;100.00
56064;BME280;41940;52.880;13.012;2022-07-10T05:24:28;101426.09;;;13.27;100.00
56064;BME280;41940;52.880;13.012;2022-07-10T05:26:53;101422.41;;;13.36;100.00
56064;BME280;41940;52.880;13.012;2022-07-10T05:29:18;101427.72;;;13.19;100.00
56064;BME280;41940;52.880;13.012;2022-07-10T05:31:44;101424.03;;;13.21;100.00
56064;BME280;41940;52.880;13.012;2022-07-10T05:34:09;101427.28;;;13.32;100.00
56064;BME280;41940;52.880;13.012;2022-07-10T05:36:34;101418.84;;;13.27;100.00
56064;BME280;41940;52.880;13.012;2022-07-10T05:39:00;101416.81;;;13.21;100.00
56064;BME280;41940;52.880;13.012;2022-07-10T05:41:25;101426.41;;;13.24;100.00
56064;BME280;41940;52.880;13.012;2022-07-10T05:43:50;101423.59;;;13.33;100.00
56064;BME280;41940;52.880;13.012;2022-07-10T05:46:16;101429.28;;;13.22;100.00
56064;BME280;41940;52.880;13.012;2022-07-10T05:48:41;101425.75;;;13.30;100.00
56064;BME280;41940;52.880;13.012;2022-07-10T05:51:06;101432.81;;;13.31;100.00
56064;BME280;41940;52.880;13.012;2022-07-10T05:53:32;101427.34;;;13.41;100.00
56064;BME280;41940;52.880;13.012;2022-07-10T05:56:00;101433.78;;;13.56;100.00
56064;BME280;41940;52.880;13.012;2022-07-10T05:58:26;101427.38;;;13.49;100.00
56064;BME280;41940;52.880;13.012;2022-07-10T06:00:52;101426.19;;;13.52;100.00
56064;BME280;41940;52.880;13.012;2022-07-10T06:03:17;101424.50;;;13.51;100.00
56064;BME280;41940;52.880;13.012;2022-07-10T06:05:42;101427.44;;;13.74;100.00
56064;BME280;41940;52.880;13.012;2022-07-10T06:08:08;101428.59;;;13.71;100.00
56064;BME280;41940;52.880;13.012;2022-07-10T06:10:35;101417.31;;;13.59;100.00
56064;BME280;41940;52.880;13.012;2022-07-10T06:13:00;101420.69;;;13.70;100.00
56064;BME280;41940;52.880;13.012;2022-07-10T06:15:26;101416.50;;;13.84;100.00
56064;BME280;41940;52.880;13.012;2022-07-10T06:17:51;101425.09;;;13.87;100.00
56064;BME280;41940;52.880;13.012;2022-07-10T06:20:16;101423.75;;;13.75;100.00
56064;BME280;41940;52.880;13.012;2022-07-10T06:22:42;101422.22;;;13.81;100.00
56064;BME280;41940;52.880;13.012;2022-07-10T06:25:07;101429.31;;;13.82;100.00
56064;BME280;41940;52.880;13.012;2022-07-10T06:27:33;101427.47;;;13.99;100.00
56064;BME280;41940;52.880;13.012;2022-07-10T06:29:59;101427.97;;;14.02;100.00
56064;BME280;41940;52.880;13.012;2022-07-10T06:32:25;101429.50;;;13.97;100.00
56064;BME280;41940;52.880;13.012;2022-07-10T06:34:51;101430.84;;;14.01;100.00
56064;BME280;41940;52.880;13.012;2022-07-10T06:37:16;101426.97;;;13.95;100.00
56064;BME280;41940;52.880;13.012;2022-07-10T06:39:42;101429.66;;;13.95;100.00
56064;BME280;41940;52.880;13.012;2022-07-10T06:42:07;101422.59;;;14.02;100.00
56064;BME280;41940;52.880;13.012;2022-07-10T06:44:33;101430.19;;;14.40;100.00
56064;BME280;41940;52.880;13.012;2022-07-10T06:46:58;101423.44;;;14.28;100.00
56064;BME280;41940;52.880;13.012;2022-07-10T06:49:43;101429.34;;;14.48;100.00
56064;BME280;41940;52.880;13.012;2022-07-10T06:52:08;101422.53;;;14.77;100.00
56064;BME280;41940;52.880;13.012;2022-07-10T06:54:34;101425.28;;;14.35;100.00
56064;BME280;41940;52.880;13.012;2022-07-10T06:56:59;101424.59;;;14.58;100.00
56064;BME280;41940;52.880;13.012;2022-07-10T06:59:25;101428.13;;;14.59;100.00
56064;BME280;41940;52.880;13.012;2022-07-10T07:01:50;101427.13;;;14.51;100.00
56064;BME280;41940;52.880;13.012;2022-07-10T07:04:16;101432.69;;;14.25;100.00
56064;BME280;41940;52.880;13.012;2022-07-10T07:06:41;101423.75;;;14.33;100.00
56064;BME280;41940;52.880;13.012;2022-07-10T07:09:06;101428.97;;;14.43;100.00
56064;BME280;41940;52.880;13.012;2022-07-10T07:11:32;101431.31;;;14.62;100.00
56064;BME280;41940;52.880;13.012;2022-07-10T07:13:57;101428.66;;;14.46;100.00
56064;BME280;41940;52.880;13.012;2022-07-10T07:16:22;101427.13;;;14.43;100.00
56064;BME280;41940;52.880;13.012;2022-07-10T07:19:03;101434.53;;;14.66;100.00
56064;BME280;41940;52.880;13.012;2022-07-10T07:21:29;101436.06;;;14.60;100.00
56064;BME280;41940;52.880;13.012;2022-07-10T07:24:13;101439.78;;;14.34;100.00
56064;BME280;41940;52.880;13.012;2022-07-10T07:26:38;101433.03;;;14.38;100.00
56064;BME280;41940;52.880;13.012;2022-07-10T07:29:04;101433.53;;;14.50;100.00
56064;BME280;41940;52.880;13.012;2022-07-10T07:31:29;101440.94;;;14.81;100.00
56064;BME280;41940;52.880;13.012;2022-07-10T07:33:54;101437.59;;;15.27;100.00
56064;BME280;41940;52.880;13.012;2022-07-10T07:36:20;101436.56;;;14.80;100.00
56064;BME280;41940;52.880;13.012;2022-07-10T07:38:45;101443.63;;;14.73;100.00
56064;BME280;41940;52.880;13.012;2022-07-10T07:41:10;101439.09;;;14.57;100.00
56064;BME280;41940;52.880;13.012;2022-07-10T07:43:36;101431.97;;;14.64;100.00
56064;BME280;41940;52.880;13.012;2022-07-10T07:46:01;101438.03;;;14.91;100.00
56064;BME280;41940;52.880;13.012;2022-07-10T07:48:26;101437.34;;;14.89;100.00
56064;BME280;41940;52.880;13.012;2022-07-10T07:50:52;101444.97;;;14.94;100.00
56064;BME280;41940;52.880;13.012;2022-07-10T07:53:17;101435.53;;;14.81;100.00
56064;BME280;41940;52.880;13.012;2022-07-10T07:55:42;101431.31;;;14.79;100.00
56064;BME280;41940;52.880;13.012;2022-07-10T07:58:08;101432.53;;;14.68;100.00
56064;BME280;41940;52.880;13.012;2022-07-10T08:00:33;101431.50;;;14.69;99.85
56064;BME280;41940;52.880;13.012;2022-07-10T08:02:59;101436.03;;;14.85;100.00
56064;BME280;41940;52.880;13.012;2022-07-10T08:05:25;101435.13;;;15.01;100.00
56064;BME280;41940;52.880;13.012;2022-07-10T08:07:55;101438.66;;;15.10;100.00
56064;BME280;41940;52.880;13.012;2022-07-10T08:10:23;101442.03;;;15.12;100.00
56064;BME280;41940;52.880;13.012;2022-07-10T08:12:49;101435.19;;;15.64;100.00
56064;BME280;41940;52.880;13.012;2022-07-10T08:15:15;101439.41;;;15.67;100.00
56064;BME280;41940;52.880;13.012;2022-07-10T08:17:41;101434.66;;;15.37;100.00
56064;BME280;41940;52.880;13.012;2022-07-10T08:20:07;101428.81;;;15.25;100.00
56064;BME280;41940;52.880;13.012;2022-07-10T08:22:33;101436.63;;;15.04;100.00
56064;BME280;41940;52.880;13.012;2022-07-10T08:24:59;101434.94;;;15.02;100.00
56064;BME280;41940;52.880;13.012;2022-07-10T08:27:24;101446.78;;;14.93;100.00
56064;BME280;41940;52.880;13.012;2022-07-10T08:29:50;101438.25;;;14.81;100.00
56064;BME280;41940;52.880;13.012;2022-07-10T08:32:15;101438.41;;;14.88;100.00
56064;BME280;41940;52.880;13.012;2022-07-10T08:34:41;101435.19;;;14.84;100.00
56064;BME280;41940;52.880;13.012;2022-07-10T08:37:06;101442.84;;;15.12;100.00
56064;BME280;41940;52.880;13.012;2022-07-10T08:39:32;101449.59;;;15.16;100.00
56064;BME280;41940;52.880;13.012;2022-07-10T08:41:58;101442.31;;;15.17;100.00
56064;BME280;41940;52.880;13.012;2022-07-10T08:44:24;101442.66;;;15.22;100.00
56064;BME280;41940;52.880;13.012;2022-07-10T08:46:49;101441.00;;;15.13;100.00
56064;BME280;41940;52.880;13.012;2022-07-10T08:49:14;101456.50;;;15.19;98.88
56064;BME280;41940;52.880;13.012;2022-07-10T08:51:45;101454.13;;;15.24;100.00
56064;BME280;41940;52.880;13.012;2022-07-10T08:54:13;101448.66;;;15.41;100.00
56064;BME280;41940;52.880;13.012;2022-07-10T08:56:39;101448.13;;;15.45;100.00
56064;BME280;41940;52.880;13.012;2022-07-10T08:59:04;101449.75;;;15.55;100.00
56064;BME280;41940;52.880;13.012;2022-07-10T09:01:30;101451.09;;;15.59;100.00
56064;BME280;41940;52.880;13.012;2022-07-10T09:03:56;101443.78;;;15.99;100.00
56064;BME280;41940;52.880;13.012;2022-07-10T09:06:21;101449.28;;;15.83;96.57
56064;BME280;41940;52.880;13.012;2022-07-10T09:08:59;101439.88;;;16.02;97.97
56064;BME280;41940;52.880;13.012;2022-07-10T09:11:25;101450.59;;;16.18;96.83
56064;BME280;41940;52.880;13.012;2022-07-10T09:13:54;101448.13;;;16.47;100.00
56064;BME280;41940;52.880;13.012;2022-07-10T09:16:24;101449.72;;;16.56;99.08
56064;BME280;41940;52.880;13.012;2022-07-10T09:18:49;101446.31;;;16.77;100.00
56064;BME280;41940;52.880;13.012;2022-07-10T09:21:15;101443.75;;;16.22;94.05
56064;BME280;41940;52.880;13.012;2022-07-10T09:23:41;101453.19;;;16.03;91.36
56064;BME280;41940;52.880;13.012;2022-07-10T09:26:06;101453.16;;;16.12;99.16
56064;BME280;41940;52.880;13.012;2022-07-10T09:28:32;101462.84;;;15.74;100.00
56064;BME280;41940;52.880;13.012;2022-07-10T09:30:57;101459.81;;;15.69;95.80
56064;BME280;41940;52.880;13.012;2022-07-10T09:33:24;101462.47;;;15.77;97.40
56064;BME280;41940;52.880;13.012;2022-07-10T09:46:25;101460.22;;;15.58;96.25
56064;BME280;41940;52.880;13.012;2022-07-10T09:49:01;101461.16;;;15.73;98.25
56064;BME280;41940;52.880;13.012;2022-07-10T09:51:28;101465.84;;;15.79;99.46
56064;BME280;41940;52.880;13.012;2022-07-10T09:53:54;101460.13;;;16.06;95.15
56064;BME280;41940;52.880;13.012;2022-07-10T09:56:21;101460.53;;;16.18;97.09
56064;BME280;41940;52.880;13.012;2022-07-10T09:58:47;101456.47;;;16.60;93.84
56064;BME280;41940;52.880;13.012;2022-07-10T10:01:17;101466.38;;;16.30;93.13
56064;BME280;41940;52.880;13.012;2022-07-10T10:03:43;101461.19;;;16.20;93.20
56064;BME280;41940;52.880;13.012;2022-07-10T10:06:10;101463.34;;;16.24;95.10
56064;BME280;41940;52.880;13.012;2022-07-10T10:11:02;101473.41;;;15.92;94.91
56064;BME280;41940;52.880;13.012;2022-07-10T10:13:29;101472.91;;;15.89;93.26
56064;BME280;41940;52.880;13.012;2022-07-10T10:15:57;101471.19;;;15.96;92.47
56064;BME280;41940;52.880;13.012;2022-07-10T10:18:26;101482.53;;;15.83;93.41
56064;BME280;41940;52.880;13.012;2022-07-10T10:20:55;101468.25;;;16.06;92.52
56064;BME280;41940;52.880;13.012;2022-07-10T10:23:24;101480.53;;;15.85;89.85
56064;BME280;41940;52.880;13.012;2022-07-10T10:25:53;101473.09;;;15.87;88.87
56064;BME280;41940;52.880;13.012;2022-07-10T10:28:19;101473.81;;;16.28;88.84
56064;BME280;41940;52.880;13.012;2022-07-10T10:30:48;101491.25;;;16.25;89.44
56064;BME280;41940;52.880;13.012;2022-07-10T10:35:57;101477.31;;;16.36;88.87
56064;BME280;41940;52.880;13.012;2022-07-10T10:38:22;101479.03;;;16.29;86.47
56064;BME280;41940;52.880;13.012;2022-07-10T10:40:48;101480.00;;;16.36;87.39
56064;BME280;41940;52.880;13.012;2022-07-10T10:43:23;101485.53;;;16.43;88.47
56064;BME280;41940;52.880;13.012;2022-07-10T10:45:49;101481.56;;;16.54;91.17
56064;BME280;41940;52.880;13.012;2022-07-10T10:48:15;101484.97;;;16.71;90.36
56064;BME280;41940;52.880;13.012;2022-07-10T10:50:48;101489.25;;;16.42;88.86
56064;BME280;41940;52.880;13.012;2022-07-10T10:53:20;101487.56;;;16.41;84.46
56064;BME280;41940;52.880;13.012;2022-07-10T11:06:38;101480.53;;;17.08;82.46
56064;BME280;41940;52.880;13.012;2022-07-10T11:09:20;101485.31;;;16.83;84.15
56064;BME280;41940;52.880;13.012;2022-07-10T11:11:56;101481.22;;;16.72;84.95
56064;BME280;41940;52.880;13.012;2022-07-10T11:14:22;101484.81;;;16.03;86.49
56064;BME280;41940;52.880;13.012;2022-07-10T11:16:53;101482.16;;;15.94;88.08
56064;BME280;41940;52.880;13.012;2022-07-10T11:19:19;101483.50;;;16.45;87.50
56064;BME280;41940;52.880;13.012;2022-07-10T11:21:47;101485.84;;;16.25;86.24
56064;BME280;41940;52.880;13.012;2022-07-10T11:25:00;101477.41;;;16.66;88.71
56064;BME280;41940;52.880;13.012;2022-07-10T11:27:09;101486.78;;;17.09;88.81
56064;BME280;41940;52.880;13.012;2022-07-10T11:29:37;101486.41;;;17.12;84.23
56064;BME280;41940;52.880;13.012;2022-07-10T11:32:03;101475.94;;;17.39;81.07
56064;BME280;41940;52.880;13.012;2022-07-10T11:34:35;101471.25;;;17.48;78.89
56064;BME280;41940;52.880;13.012;2022-07-10T11:37:01;101473.72;;;17.79;85.77
56064;BME280;41940;52.880;13.012;2022-07-10T11:39:27;101472.53;;;18.25;81.50
56064;BME280;41940;52.880;13.012;2022-07-10T11:41:52;101482.09;;;18.43;76.79
56064;BME280;41940;52.880;13.012;2022-07-10T11:44:18;101472.47;;;17.60;78.58
56064;BME280;41940;52.880;13.012;2022-07-10T11:46:44;101479.50;;;17.24;81.31
56064;BME280;41940;52.880;13.012;2022-07-10T11:49:11;101475.94;;;17.09;83.67
56064;BME280;41940;52.880;13.012;2022-07-10T11:51:41;101480.38;;;16.72;84.47
56064;BME280;41940;52.880;13.012;2022-07-10T11:54:08;101484.78;;;16.88;87.54
56064;BME280;41940;52.880;13.012;2022-07-10T11:56:36;101486.97;;;17.07;85.71
56064;BME280;41940;52.880;13.012;2022-07-10T11:59:03;101485.19;;;17.14;82.54
56064;BME280;41940;52.880;13.012;2022-07-10T12:01:30;101475.63;;;17.64;83.45
56064;BME280;41940;52.880;13.012;2022-07-10T12:03:57;101480.97;;;17.57;83.59
56064;BME280;41940;52.880;13.012;2022-07-10T12:06:23;101481.97;;;17.56;81.32
56064;BME280;41940;52.880;13.012;2022-07-10T12:08:49;101484.91;;;17.24;83.34
56064;BME280;41940;52.880;13.012;2022-07-10T12:11:15;101484.09;;;17.24;88.32
56064;BME280;41940;52.880;13.012;2022-07-10T12:13:40;101479.97;;;16.98;84.56
56064;BME280;41940;52.880;13.012;2022-07-10T12:16:06;101492.41;;;16.69;84.84
56064;BME280;41940;52.880;13.012;2022-07-10T12:18:32;101488.38;;;16.65;85.94
56064;BME280;41940;52.880;13.012;2022-07-10T12:20:58;101496.34;;;16.43;85.93
56064;BME280;41940;52.880;13.012;2022-07-10T12:23:24;101489.16;;;16.35;81.76
56064;BME280;41940;52.880;13.012;2022-07-10T12:25:50;101490.16;;;16.73;84.41
56064;BME280;41940;52.880;13.012;2022-07-10T12:28:15;101490.72;;;17.06;83.96
56064;BME280;41940;52.880;13.012;2022-07-10T12:30:41;101481.06;;;18.22;80.00
56064;BME280;41940;52.880;13.012;2022-07-10T12:33:18;101480.88;;;18.23;80.09
56064;BME280;41940;52.880;13.012;2022-07-10T12:35:53;101488.34;;;19.77;79.44
56064;BME280;41940;52.880;13.012;2022-07-10T12:38:26;101483.25;;;18.55;79.93
56064;BME280;41940;52.880;13.012;2022-07-10T12:41:07;101493.91;;;17.25;81.97
56064;BME280;41940;52.880;13.012;2022-07-10T12:43:34;101486.78;;;17.09;82.15
56064;BME280;41940;52.880;13.012;2022-07-10T12:46:12;101491.50;;;16.92;82.09
56064;BME280;41940;52.880;13.012;2022-07-10T12:48:41;101486.28;;;17.65;80.57
56064;BME280;41940;52.880;13.012;2022-07-10T12:51:22;101485.06;;;17.68;81.19
56064;BME280;41940;52.880;13.012;2022-07-10T12:53:48;101474.50;;;17.95;78.64
56064;BME280;41940;52.880;13.012;2022-07-10T12:56:25;101484.72;;;17.92;79.08